Akhtubinsk, Russia
Current Conditions -  °F | °C
As of 12:30 PM on Saturday 25 Oct 2014 (Local Time) from URWW Reporting Station
Scattered Clouds Scattered Clouds  
Wind Chill: 13°   Ceiling: Unl
Heat Index: 25°   Visibility: 6mi
Dew Point: 12°   Wind: 13mph
Humidity: 59%   Direction: 10°N
Pressure: 30.45"   Gusts: NA
Location:  48.28°N, 46.17°E
Report Text: URWW 250930Z 01006MPS 9999 SCT025 M04/M11 Q1031 NOSIG RMKSC070
Loading
Personal Weather Stations






























Interactive Weather Map
Tropical Storm Tracking
New forecast layout! Learn more

10-Day Weather Forecast

Advertisements
Track Severe Weather on mobile